Time;durP1;ratioP1;P1;durP2;ratioP2;P2;SDS_P1;SDS_P2;PMS_P1;PMS_P2;Temp;Humidity;BMP_temperature;BMP_pressure;BME280_temperature;BME280_humidity;BME280_pressure;Samples;Min_cycle;Max_cycle;Signal;HPM_P1;HPM_P2
2023/12/07 00:00:01;;;;;;;2.83;2.00;;;;;;;5.58;100.00;101445.22;2095388;28;20187;-65
2023/12/07 00:01:01;;;;;;;3.40;2.27;;;;;;;5.76;100.00;101462.69;2089482;28;20560;-64
2023/12/07 00:02:01;;;;;;;2.93;2.00;;;;;;;5.75;100.00;101461.06;2096815;28;20245;-65
2023/12/07 00:03:02;;;;;;;3.00;2.13;;;;;;;5.30;100.00;101398.22;2080857;28;20200;-64
2023/12/07 00:04:03;;;;;;;3.30;2.10;;;;;;;5.76;100.00;101461.88;2088056;28;20207;-64
2023/12/07 00:05:04;;;;;;;3.90;2.07;;;;;;;5.59;100.00;101437.78;2093977;28;20215;-64
2023/12/07 00:06:05;;;;;;;2.57;1.77;;;;;;;5.78;100.00;101465.03;2097375;28;20196;-65
2023/12/07 00:07:05;;;;;;;4.13;2.40;;;;;;;5.76;100.00;101470.94;2097123;28;20425;-64
2023/12/07 00:08:05;;;;;;;2.97;1.90;;;;;;;5.77;100.00;101467.00;2096695;28;20175;-64
2023/12/07 00:09:06;;;;;;;3.07;2.03;;;;;;;5.77;100.00;101472.50;2097521;28;20681;-64
2023/12/07 00:10:07;;;;;;;2.30;1.80;;;;;;;5.80;100.00;101471.75;2097544;28;20573;-64
2023/12/07 00:11:07;;;;;;;3.90;2.23;;;;;;;5.79;100.00;101469.38;2096933;28;20691;-65
2023/12/07 00:12:08;;;;;;;2.53;1.80;;;;;;;5.69;100.00;101464.56;2091667;28;20637;-64
2023/12/07 00:13:08;;;;;;;3.20;1.93;;;;;;;5.24;100.00;101390.69;2093162;28;20223;-64
2023/12/07 00:14:09;;;;;;;3.50;2.27;;;;;;;5.74;100.00;101470.50;2097165;28;20617;-65
2023/12/07 00:15:10;;;;;;;2.37;1.93;;;;;;;5.39;100.00;101417.16;2095299;28;20197;-65
2023/12/07 00:16:10;;;;;;;2.10;1.50;;;;;;;5.71;100.00;101468.53;2088766;28;20261;-65
2023/12/07 00:17:10;;;;;;;2.80;1.70;;;;;;;5.63;100.00;101455.06;2088742;28;20586;-64
2023/12/07 00:18:11;;;;;;;2.20;1.70;;;;;;;5.72;100.00;101464.59;2096638;28;20665;-65
2023/12/07 00:19:11;;;;;;;2.70;2.03;;;;;;;5.72;100.00;101464.59;2096836;28;20222;-65
2023/12/07 00:20:12;;;;;;;2.97;1.97;;;;;;;5.72;100.00;101469.31;2096591;28;20190;-65
2023/12/07 00:21:12;;;;;;;2.70;2.00;;;;;;;5.76;100.00;101479.19;2092393;28;20241;-64
2023/12/07 00:22:13;;;;;;;2.93;1.70;;;;;;;5.77;100.00;101474.47;2090428;28;20174;-64
2023/12/07 00:23:13;;;;;;;4.30;2.20;;;;;;;5.75;100.00;101472.09;2096810;28;20882;-64
2023/12/07 00:24:14;;;;;;;2.90;1.80;;;;;;;5.77;100.00;101475.25;2097375;28;20180;-64
2023/12/07 00:25:15;;;;;;;3.33;1.83;;;;;;;5.79;100.00;101478.41;2096858;28;20380;-65
2023/12/07 00:26:16;;;;;;;3.95;1.70;;;;;;;5.05;100.00;101360.66;2090968;28;20191;-65
2023/12/07 00:27:16;;;;;;;2.57;1.77;;;;;;;5.82;100.00;101476.91;2088238;28;20310;-65
2023/12/07 00:28:17;;;;;;;2.70;1.70;;;;;;;5.80;100.00;101480.00;2092560;28;20196;-64
2023/12/07 00:29:17;;;;;;;3.77;1.87;;;;;;;5.79;100.00;101480.38;2096937;28;20210;-64
2023/12/07 00:30:18;;;;;;;3.20;1.90;;;;;;;5.78;100.00;101474.09;2096543;28;20288;-65
2023/12/07 00:31:20;;;;;;;2.80;1.90;;;;;;;5.78;100.00;101479.59;2097561;28;20199;-64
2023/12/07 00:32:20;;;;;;;2.75;1.83;;;;;;;5.78;100.00;101471.34;2097223;28;20193;-65
2023/12/07 00:33:21;;;;;;;2.57;1.70;;;;;;;5.13;100.00;101387.06;2096484;28;20195;-65
2023/12/07 00:34:22;;;;;;;2.20;1.70;;;;;;;5.81;100.00;101481.63;2097076;28;20330;-64
2023/12/07 00:35:23;;;;;;;2.17;1.50;;;;;;;5.83;100.00;101481.22;2096968;28;20680;-65
2023/12/07 00:36:23;;;;;;;3.17;2.10;;;;;;;5.84;100.00;101482.81;2097198;28;20603;-64
2023/12/07 00:37:24;;;;;;;2.63;1.87;;;;;;;5.73;100.00;101462.63;2096700;28;20172;-65
2023/12/07 00:38:24;;;;;;;1.63;1.37;;;;;;;5.72;100.00;101472.84;2096770;28;20233;-64
2023/12/07 00:39:25;;;;;;;3.03;2.03;;;;;;;5.81;100.00;101483.56;2088902;28;20212;-66
2023/12/07 00:40:25;;;;;;;2.47;1.47;;;;;;;5.35;100.00;101408.09;2096345;28;20218;-65
2023/12/07 00:41:26;;;;;;;3.30;1.80;;;;;;;5.85;100.00;101473.41;2096613;28;20242;-65
2023/12/07 00:42:26;;;;;;;1.90;1.60;;;;;;;5.43;100.00;101428.97;2096786;28;20189;-64
2023/12/07 00:43:27;;;;;;;2.87;1.57;;;;;;;5.89;100.00;101482.47;2095739;28;20195;-64
2023/12/07 00:44:27;;;;;;;2.33;1.63;;;;;;;5.89;100.00;101477.75;2096394;28;20176;-65
2023/12/07 00:45:28;;;;;;;2.77;1.83;;;;;;;5.89;100.00;101474.22;2097077;28;20648;-64
2023/12/07 00:46:28;;;;;;;2.20;1.30;;;;;;;5.95;100.00;101484.47;2097415;28;20179;-65
2023/12/07 00:47:29;;;;;;;2.13;1.53;;;;;;;5.97;100.00;101487.66;2096772;28;20203;-65
2023/12/07 00:48:29;;;;;;;2.63;1.90;;;;;;;5.68;100.00;101438.22;2091527;28;20199;-65
2023/12/07 00:49:30;;;;;;;3.10;2.03;;;;;;;5.94;100.00;101482.13;2093146;28;20188;-65
2023/12/07 00:50:30;;;;;;;2.60;1.60;;;;;;;5.27;100.00;101373.44;2094307;28;20183;-64
2023/12/07 00:51:31;;;;;;;3.00;1.80;;;;;;;5.96;100.00;101488.84;2090644;28;20268;-65
2023/12/07 00:52:32;;;;;;;1.90;1.43;;;;;;;5.93;100.00;101475.81;2098326;28;20183;-64
2023/12/07 00:53:32;;;;;;;3.70;1.67;;;;;;;5.93;100.00;101489.56;2098778;28;20171;-65
2023/12/07 00:54:33;;;;;;;3.47;1.90;;;;;;;5.91;100.00;101486.44;2098271;28;20200;-65
2023/12/07 00:55:33;;;;;;;2.67;1.83;;;;;;;5.81;100.00;101473.38;2098715;28;20184;-65
2023/12/07 00:56:34;;;;;;;2.37;1.57;;;;;;;5.92;100.00;101482.50;2093172;28;20285;-65
2023/12/07 00:57:34;;;;;;;2.03;1.50;;;;;;;4.92;100.00;101326.41;2094296;28;20198;-65
2023/12/07 00:58:35;;;;;;;2.10;1.73;;;;;;;5.91;100.00;101489.19;2096227;28;20258;-64
2023/12/07 00:59:37;;;;;;;2.17;1.40;;;;;;;5.92;100.00;101485.25;2090041;28;20204;-64
2023/12/07 01:00:37;;;;;;;2.72;1.90;;;;;;;5.92;100.00;101484.44;2089889;28;20574;-64
2023/12/07 01:01:38;;;;;;;2.40;1.77;;;;;;;5.95;100.00;101486.44;2098133;28;20183;-65
2023/12/07 01:02:39;;;;;;;4.03;1.63;;;;;;;5.64;100.00;101440.94;2097878;28;20337;-64
2023/12/07 01:03:40;;;;;;;2.47;1.73;;;;;;;5.95;100.00;101486.44;2092366;28;20188;-64
2023/12/07 01:04:41;;;;;;;4.73;1.93;;;;;;;5.93;100.00;101484.06;2090220;28;20279;-65
2023/12/07 01:05:41;;;;;;;2.07;1.63;;;;;;;5.95;100.00;101489.22;2090563;28;20274;-65
2023/12/07 01:06:42;;;;;;;1.67;1.33;;;;;;;5.95;100.00;101483.69;2089828;28;20242;-65
2023/12/07 01:07:43;;;;;;;2.83;1.50;;;;;;;4.97;100.00;101334.31;2090348;28;20638;-64
2023/12/07 01:08:43;;;;;;;2.93;1.63;;;;;;;5.94;100.00;101484.88;2090535;28;20567;-65
2023/12/07 01:09:47;;;;;;;1.90;1.53;;;;;;;5.93;100.00;101486.03;2096511;28;20673;-64
2023/12/07 01:10:47;;;;;;;2.30;1.50;;;;;;;5.97;100.00;101492.34;2098786;28;20195;-64
2023/12/07 01:11:48;;;;;;;2.27;1.60;;;;;;;5.93;100.00;101495.06;2090490;28;20642;-65
2023/12/07 01:12:49;;;;;;;1.70;1.40;;;;;;;5.03;100.00;101363.78;2089300;28;20211;-64
2023/12/07 01:13:49;;;;;;;3.13;1.80;;;;;;;5.85;100.00;101476.91;2095185;28;20194;-65
2023/12/07 01:14:50;;;;;;;2.17;1.60;;;;;;;5.80;100.00;101460.00;2098297;28;20195;-65
2023/12/07 01:15:50;;;;;;;2.70;1.70;;;;;;;5.80;100.00;101473.75;2095168;28;20274;-65
2023/12/07 01:16:51;;;;;;;2.63;1.67;;;;;;;5.82;100.00;101476.91;2091968;28;20679;-64
2023/12/07 01:17:51;;;;;;;2.80;1.43;;;;;;;5.94;100.00;101488.41;2098673;28;20648;-64
2023/12/07 01:18:52;;;;;;;1.63;1.27;;;;;;;5.99;100.00;101492.75;2098424;28;20662;-64
2023/12/07 01:19:52;;;;;;;2.77;1.50;;;;;;;5.99;100.00;101488.06;2098076;28;20199;-65
2023/12/07 01:20:53;;;;;;;2.23;1.53;;;;;;;6.01;100.00;101491.19;2098419;28;20199;-64
2023/12/07 01:21:53;;;;;;;3.17;1.60;;;;;;;5.97;100.00;101486.84;2098333;28;20245;-65
2023/12/07 01:22:54;;;;;;;2.37;1.60;;;;;;;5.64;100.00;101448.44;2098154;28;20176;-65
2023/12/07 01:23:54;;;;;;;3.03;1.70;;;;;;;5.72;100.00;101463.81;2097730;28;20172;-65
2023/12/07 01:24:55;;;;;;;2.40;1.80;;;;;;;5.93;100.00;101489.56;2090461;28;20260;-65
2023/12/07 01:25:55;;;;;;;1.60;1.40;;;;;;;5.87;100.00;101476.53;2097177;28;20233;-65
2023/12/07 01:26:56;;;;;;;1.97;1.17;;;;;;;5.88;100.00;101478.13;2092258;28;20241;-65
2023/12/07 01:27:56;;;;;;;3.10;1.40;;;;;;;5.94;100.00;101491.16;2094800;28;20265;-64
2023/12/07 01:28:57;;;;;;;2.40;1.70;;;;;;;5.94;100.00;101484.88;2097427;28;20665;-65
2023/12/07 01:29:57;;;;;;;2.70;1.60;;;;;;;5.94;100.00;101485.66;2097918;28;20186;-64
2023/12/07 01:30:58;;;;;;;3.03;1.70;;;;;;;5.94;100.00;101488.41;2098213;28;20668;-65
2023/12/07 01:31:58;;;;;;;2.33;1.60;;;;;;;5.99;100.00;101487.25;2098805;28;20202;-64
2023/12/07 01:32:59;;;;;;;3.23;1.90;;;;;;;5.99;100.00;101492.75;2098184;28;20612;-65
2023/12/07 01:34:00;;;;;;;3.00;1.63;;;;;;;5.88;100.00;101481.69;2091815;28;20192;-65
2023/12/07 01:35:00;;;;;;;2.17;1.60;;;;;;;5.92;100.00;101477.00;2095011;28;20191;-65
2023/12/07 01:36:00;;;;;;;1.80;1.43;;;;;;;5.94;100.00;101485.66;2098213;28;20206;-65
2023/12/07 01:37:01;;;;;;;2.27;1.33;;;;;;;5.93;100.00;101477.78;2098108;28;20267;-65
2023/12/07 01:38:01;;;;;;;3.13;1.83;;;;;;;5.93;100.00;101481.31;2097935;28;20186;-65
2023/12/07 01:39:03;;;;;;;3.70;1.80;;;;;;;5.87;100.00;101469.09;2098462;28;20206;-64
2023/12/07 01:40:05;;;;;;;2.22;1.60;;;;;;;5.94;100.00;101479.38;2090285;28;20200;-65
2023/12/07 01:41:06;;;;;;;2.15;1.55;;;;;;;5.95;100.00;101481.72;2097095;28;20188;-64
2023/12/07 01:42:08;;;;;;;1.73;1.40;;;;;;;5.97;100.00;101484.09;2098322;28;20293;-65
2023/12/07 01:43:08;;;;;;;1.70;1.20;;;;;;;5.96;100.00;101480.56;2098220;28;20220;-64
2023/12/07 01:44:09;;;;;;;1.73;1.30;;;;;;;5.96;100.00;101486.06;2097994;28;20206;-65
2023/12/07 01:45:09;;;;;;;3.17;1.70;;;;;;;5.46;100.00;101429.00;2095623;28;20272;-65
2023/12/07 01:46:11;;;;;;;2.20;1.60;;;;;;;4.69;100.00;101293.63;2090880;28;20184;-64
2023/12/07 01:47:11;;;;;;;2.50;1.50;;;;;;;5.85;100.00;101487.16;2098417;28;20265;-64
2023/12/07 01:48:13;;;;;;;1.47;1.20;;;;;;;5.84;100.00;101485.56;2090486;28;20261;-64
2023/12/07 01:49:13;;;;;;;1.80;1.40;;;;;;;5.84;100.00;101488.31;2096353;28;20251;-65
2023/12/07 01:50:17;;;;;;;1.70;1.30;;;;;;;5.64;100.00;101451.94;2092710;28;20326;-65
2023/12/07 01:51:19;;;;;;;1.85;1.30;;;;;;;4.88;100.00;101344.81;2094250;28;20657;-65
2023/12/07 01:52:22;;;;;;;2.97;1.40;;;;;;;5.50;100.00;101440.84;2098286;28;20194;-65
2023/12/07 01:53:24;;;;;;;1.55;1.25;;;;;;;5.82;100.00;101501.66;2105555;28;20676;-64
2023/12/07 01:54:25;;;;;;;1.48;1.02;;;;;;;5.00;100.00;101341.78;2105617;28;20175;-65
2023/12/07 01:55:27;;;;;;;2.23;1.40;;;;;;;5.77;100.00;101477.22;2098395;28;20180;-65
2023/12/07 01:56:30;;;;;;;2.25;1.50;;;;;;;5.81;100.00;101478.06;2098526;28;20195;-65
2023/12/07 01:57:30;;;;;;;2.10;1.42;;;;;;;5.80;100.00;101482.00;2097621;28;20206;-65
2023/12/07 01:58:31;;;;;;;1.53;1.20;;;;;;;5.68;100.00;101452.78;2092515;28;20216;-65
2023/12/07 01:59:33;;;;;;;1.20;1.07;;;;;;;5.14;100.00;101367.44;2093340;28;20200;-64
2023/12/07 02:00:34;;;;;;;1.70;1.10;;;;;;;5.87;100.00;101471.03;2095267;28;20208;-65
2023/12/07 02:01:35;;;;;;;1.58;1.27;;;;;;;5.82;100.00;101468.63;2089784;28;20185;-65
2023/12/07 02:02:36;;;;;;;1.53;1.30;;;;;;;5.93;100.00;101480.53;2089746;28;20184;-65
2023/12/07 02:03:39;;;;;;;2.10;1.50;;;;;;;4.91;100.00;101319.31;2097919;28;20171;-65
2023/12/07 02:04:40;;;;;;;1.70;1.40;;;;;;;5.95;100.00;101478.19;2090321;28;20194;-64
2023/12/07 02:05:43;;;;;;;1.77;1.23;;;;;;;5.86;100.00;101463.97;2096515;28;20208;-64
2023/12/07 02:06:43;;;;;;;2.25;1.60;;;;;;;6.01;100.00;101482.94;2092156;28;20191;-65
2023/12/07 02:07:44;;;;;;;2.23;1.33;;;;;;;6.05;100.00;101478.28;2094330;28;20279;-65
2023/12/07 02:08:44;;;;;;;1.47;1.20;;;;;;;6.07;100.00;101467.69;2098290;28;20174;-65
2023/12/07 02:09:45;;;;;;;1.93;1.40;;;;;;;5.22;100.00;101327.06;2095970;28;20228;-64
2023/12/07 02:10:46;;;;;;;2.08;1.40;;;;;;;5.54;100.00;101383.13;2089746;28;20180;-64
2023/12/07 02:11:46;;;;;;;1.83;1.30;;;;;;;6.11;100.00;101460.22;2090053;28;20260;-64
2023/12/07 02:12:48;;;;;;;1.53;1.30;;;;;;;6.15;100.00;101472.06;2089656;28;20195;-65
2023/12/07 02:13:50;;;;;;;1.90;1.45;;;;;;;6.18;100.00;101470.50;2095950;28;20175;-65
2023/12/07 02:14:53;;;;;;;2.13;1.40;;;;;;;6.17;100.00;101466.97;2092411;28;20211;-65
2023/12/07 02:15:58;;;;;;;1.90;1.20;;;;;;;6.17;100.00;101471.69;2094397;28;20187;-64
2023/12/07 02:17:19;;;;;;;2.15;1.23;;;;;;;6.18;100.00;101476.81;2097266;28;20698;-64
2023/12/07 02:18:38;;;;;;;2.08;1.60;;;;;;;6.14;100.00;101470.47;2098050;28;20190;-64
2023/12/07 02:19:51;;;;;;;1.80;1.42;;;;;;;6.17;100.00;101477.19;2097363;28;20305;-64
2023/12/07 02:21:01;;;;;;;2.10;1.40;;;;;;;6.16;100.00;101470.09;2097980;28;20184;-65
2023/12/07 02:22:09;;;;;;;3.35;2.05;;;;;;;6.13;100.00;101468.09;2090582;28;20203;-65
2023/12/07 02:23:13;;;;;;;4.10;1.98;;;;;;;6.10;100.00;101466.91;2096376;28;20195;-64
2023/12/07 02:24:21;;;;;;;2.33;1.60;;;;;;;6.14;100.00;101476.00;2097696;28;20255;-65
2023/12/07 02:25:26;;;;;;;2.50;1.60;;;;;;;6.16;100.00;101475.63;2092237;28;20178;-64
2023/12/07 02:26:49;;;;;;;2.35;1.40;;;;;;;6.14;100.00;101475.19;2094570;28;20195;-65
2023/12/07 02:27:50;;;;;;;2.05;1.48;;;;;;;6.14;100.00;101469.69;2097505;28;20324;-64
2023/12/07 02:28:52;;;;;;;2.17;1.60;;;;;;;5.49;100.00;101388.97;2097864;28;20260;-65
2023/12/07 02:29:52;;;;;;;1.60;1.20;;;;;;;6.11;100.00;101470.47;2097150;28;20651;-65
2023/12/07 02:30:53;;;;;;;2.10;1.30;;;;;;;6.11;100.00;101479.50;2097865;28;20196;-65
2023/12/07 02:31:53;;;;;;;2.37;1.70;;;;;;;5.75;100.00;101411.56;2095860;28;20225;-65
2023/12/07 02:32:54;;;;;;;1.57;1.40;;;;;;;5.79;100.00;101428.91;2090289;28;20172;-64
2023/12/07 02:33:54;;;;;;;3.43;1.50;;;;;;;6.10;100.00;101475.16;2097984;28;20617;-64
2023/12/07 02:34:55;;;;;;;2.00;1.63;;;;;;;6.08;100.00;101476.72;2097773;28;20696;-65
2023/12/07 02:35:56;;;;;;;2.20;1.20;;;;;;;6.06;100.00;101468.84;2097940;28;20248;-64
2023/12/07 02:37:00;;;;;;;1.77;1.33;;;;;;;6.13;100.00;101468.91;2092294;28;20283;-64
2023/12/07 02:38:01;;;;;;;2.85;1.70;;;;;;;5.93;100.00;101459.31;2089705;28;20197;-64
2023/12/07 02:39:03;;;;;;;1.95;1.50;;;;;;;5.68;100.00;101407.97;2089295;28;20214;-64
2023/12/07 02:40:10;;;;;;;2.38;1.70;;;;;;;5.41;100.00;101355.13;2089378;28;20180;-65
2023/12/07 02:41:11;;;;;;;2.00;1.33;;;;;;;6.15;100.00;101465.78;2091666;28;20546;-64
2023/12/07 02:42:14;;;;;;;2.63;1.87;;;;;;;6.19;100.00;101472.88;2096662;28;20199;-66
2023/12/07 02:43:15;;;;;;;2.08;1.60;;;;;;;6.23;100.00;101484.72;2089588;28;20233;-64
2023/12/07 02:44:16;;;;;;;2.88;1.83;;;;;;;5.38;100.00;101342.13;2097585;28;20179;-65
2023/12/07 02:45:16;;;;;;;3.30;1.80;;;;;;;6.27;100.00;101470.97;2097660;28;20768;-64
2023/12/07 02:46:17;;;;;;;2.80;1.87;;;;;;;6.10;100.00;101450.41;2097720;28;20202;-65
2023/12/07 02:47:18;;;;;;;2.42;1.83;;;;;;;6.28;100.00;101476.09;2093106;28;20641;-65
2023/12/07 02:48:20;;;;;;;3.27;1.83;;;;;;;6.24;100.00;101461.53;2092076;28;20205;-64
2023/12/07 02:49:21;;;;;;;4.28;1.88;;;;;;;6.36;100.00;101466.69;2097019;28;20168;-64
2023/12/07 02:50:21;;;;;;;3.33;1.60;;;;;;;6.37;100.00;101464.75;2096685;28;20186;-65
2023/12/07 02:51:22;;;;;;;3.07;2.07;;;;;;;6.39;100.00;101471.44;2089643;28;20172;-64
2023/12/07 02:52:23;;;;;;;2.60;1.90;;;;;;;5.54;100.00;101339.91;2097196;28;20563;-64
2023/12/07 02:53:23;;;;;;;2.33;1.87;;;;;;;6.40;100.00;101473.03;2090851;28;20192;-64
2023/12/07 02:54:24;;;;;;;5.50;2.00;;;;;;;6.32;100.00;101457.66;2094827;28;20179;-64
2023/12/07 02:55:24;;;;;;;2.60;2.00;;;;;;;6.40;100.00;101486.03;2093463;28;20225;-64
2023/12/07 02:56:25;;;;;;;5.03;1.90;;;;;;;6.40;100.00;101478.53;2091471;28;20184;-65
2023/12/07 02:57:25;;;;;;;3.30;2.20;;;;;;;6.28;100.00;101465.09;2097307;28;20270;-64
2023/12/07 02:58:26;;;;;;;2.67;1.57;;;;;;;6.36;100.00;101480.47;2097972;28;20178;-65
2023/12/07 02:59:26;;;;;;;4.43;2.13;;;;;;;6.39;100.00;101485.22;2089226;28;20528;-65
2023/12/07 03:00:27;;;;;;;2.80;1.70;;;;;;;6.40;100.00;101472.25;2096454;28;20196;-65
2023/12/07 03:01:27;;;;;;;2.00;1.53;;;;;;;6.35;100.00;101467.88;2097423;28;20597;-64
2023/12/07 03:02:28;;;;;;;2.27;1.73;;;;;;;6.41;100.00;101476.59;2097428;28;20643;-64
2023/12/07 03:03:28;;;;;;;2.17;1.50;;;;;;;6.37;100.00;101479.31;2094260;28;20575;-65
2023/12/07 03:04:29;;;;;;;1.90;1.30;;;;;;;6.42;100.00;101476.16;2090769;28;20226;-65
2023/12/07 03:05:29;;;;;;;1.83;1.43;;;;;;;6.20;100.00;101455.19;2097808;28;20172;-65
2023/12/07 03:06:29;;;;;;;1.90;1.40;;;;;;;6.37;100.00;101478.50;2098041;28;20184;-64
2023/12/07 03:07:30;;;;;;;2.13;1.40;;;;;;;5.74;100.00;101406.47;2089890;28;20222;-65
2023/12/07 03:08:30;;;;;;;3.10;1.40;;;;;;;6.35;100.00;101489.13;2089227;28;20192;-64
2023/12/07 03:09:31;;;;;;;1.80;1.40;;;;;;;6.41;100.00;101490.34;2094200;28;20190;-64
2023/12/07 03:10:31;;;;;;;3.33;1.80;;;;;;;6.36;100.00;101493.47;2093662;28;20195;-64
2023/12/07 03:11:32;;;;;;;3.07;1.50;;;;;;;5.69;100.00;101388.34;2091748;28;20184;-64
2023/12/07 03:12:33;;;;;;;2.23;1.50;;;;;;;6.35;100.00;101497.38;2097324;28;20187;-65
2023/12/07 03:13:33;;;;;;;2.60;1.77;;;;;;;6.35;100.00;101494.63;2097714;28;20179;-65
2023/12/07 03:14:34;;;;;;;2.00;1.40;;;;;;;6.35;100.00;101502.91;2105581;28;20179;-64
2023/12/07 03:15:34;;;;;;;1.93;1.50;;;;;;;6.42;100.00;101502.94;2098731;28;20185;-64
2023/12/07 03:16:35;;;;;;;2.73;1.70;;;;;;;6.44;100.00;101500.56;2096946;28;20261;-64
2023/12/07 03:17:36;;;;;;;2.07;1.60;;;;;;;6.37;100.00;101489.53;2105248;28;20719;-64
2023/12/07 03:18:37;;;;;;;1.83;1.20;;;;;;;6.40;100.00;101497.03;2104812;28;20652;-65
2023/12/07 03:19:38;;;;;;;2.37;1.33;;;;;;;5.96;100.00;101433.00;2097143;28;20219;-64
2023/12/07 03:20:39;;;;;;;2.67;1.65;;;;;;;6.40;100.00;101492.28;2097426;28;20237;-64
2023/12/07 03:21:40;;;;;;;2.30;1.60;;;;;;;6.02;100.00;101456.22;2097725;28;20174;-65
2023/12/07 03:22:41;;;;;;;2.60;1.70;;;;;;;6.42;100.00;101500.19;2096488;28;20187;-65
2023/12/07 03:23:41;;;;;;;2.87;1.80;;;;;;;6.45;100.00;101491.94;2096975;28;20262;-64
2023/12/07 03:24:51;;;;;;;2.30;1.50;;;;;;;5.93;100.00;101411.75;2096984;28;20238;-64
2023/12/07 03:25:52;;;;;;;2.83;1.80;;;;;;;6.40;100.00;101486.03;2092867;28;20176;-65
2023/12/07 03:26:52;;;;;;;2.67;1.50;;;;;;;6.25;100.00;101468.59;2088869;28;20698;-64
2023/12/07 03:27:53;;;;;;;2.53;1.67;;;;;;;6.46;100.00;101498.25;2091297;28;20243;-65
2023/12/07 03:28:53;;;;;;;1.77;1.37;;;;;;;6.45;100.00;101480.94;2096322;28;20241;-64
2023/12/07 03:29:54;;;;;;;2.80;1.47;;;;;;;6.50;100.00;101488.03;2089444;28;20169;-64
2023/12/07 03:30:54;;;;;;;2.77;1.50;;;;;;;6.27;100.00;101455.25;2097174;28;20337;-64
2023/12/07 03:31:55;;;;;;;3.40;1.80;;;;;;;6.20;100.00;101440.66;2090864;28;20607;-65
2023/12/07 03:32:55;;;;;;;2.00;1.57;;;;;;;6.47;100.00;101486.81;2094397;28;20660;-64
2023/12/07 03:33:56;;;;;;;2.43;1.50;;;;;;;6.02;100.00;101428.72;2097211;28;20676;-65
2023/12/07 03:34:57;;;;;;;2.03;1.40;;;;;;;6.51;100.00;101495.13;2097435;28;20196;-64
2023/12/07 03:35:57;;;;;;;1.73;1.17;;;;;;;6.51;100.00;101497.88;2095608;28;20211;-64
2023/12/07 03:36:58;;;;;;;2.30;1.60;;;;;;;5.77;100.00;101389.19;2089529;28;20180;-65
2023/12/07 03:37:58;;;;;;;1.83;1.30;;;;;;;6.53;100.00;101492.78;2097772;28;20171;-64
2023/12/07 03:38:59;;;;;;;3.53;1.60;;;;;;;6.56;100.00;101492.78;2097113;28;20275;-65
2023/12/07 03:39:59;;;;;;;2.70;1.50;;;;;;;6.55;100.00;101487.66;2091308;28;20245;-65
2023/12/07 03:41:00;;;;;;;1.73;1.30;;;;;;;6.61;100.00;101489.69;2093783;28;20180;-65
2023/12/07 03:42:00;;;;;;;2.10;1.40;;;;;;;5.89;100.00;101386.97;2097360;28;20267;-65
2023/12/07 03:43:03;;;;;;;4.20;2.03;;;;;;;6.66;100.00;101505.84;2095116;28;20605;-64
2023/12/07 03:44:03;;;;;;;2.13;1.50;;;;;;;6.64;100.00;101504.63;2090030;28;20184;-65
2023/12/07 03:45:05;;;;;;;1.77;1.20;;;;;;;6.62;100.00;101501.50;2097421;28;20171;-65
2023/12/07 03:46:07;;;;;;;1.75;1.23;;;;;;;6.56;100.00;101490.03;2089352;28;20184;-65
2023/12/07 03:47:09;;;;;;;2.00;1.30;;;;;;;6.63;100.00;101506.63;2096331;28;20199;-64
2023/12/07 03:48:09;;;;;;;1.90;1.27;;;;;;;6.66;100.00;101505.06;2097197;28;20230;-64
2023/12/07 03:49:10;;;;;;;1.70;1.23;;;;;;;6.65;100.00;101504.25;2092402;28;20188;-65
2023/12/07 03:50:10;;;;;;;2.17;1.47;;;;;;;6.68;100.00;101508.22;2091655;28;20176;-65
2023/12/07 03:51:13;;;;;;;1.83;1.40;;;;;;;6.71;100.00;101504.72;2096170;28;20221;-64
2023/12/07 03:52:13;;;;;;;1.90;1.25;;;;;;;6.71;100.00;101508.22;2096977;28;20176;-65
2023/12/07 03:53:14;;;;;;;2.40;1.50;;;;;;;6.73;100.00;101502.34;2096019;28;20219;-65
2023/12/07 03:54:14;;;;;;;2.27;1.70;;;;;;;6.75;100.00;101502.72;2096654;28;20183;-65
2023/12/07 03:55:15;;;;;;;2.83;1.47;;;;;;;6.74;100.00;101507.47;2097325;28;20192;-65
2023/12/07 03:56:26;;;;;;;2.80;1.47;;;;;;;6.62;100.00;101484.97;2092955;28;20292;-64
2023/12/07 03:57:26;;;;;;;1.60;1.30;;;;;;;6.69;100.00;101493.25;2088824;28;20574;-64
2023/12/07 03:58:27;;;;;;;2.77;1.60;;;;;;;6.72;100.00;101500.78;2088950;28;20191;-65
2023/12/07 03:59:27;;;;;;;1.20;1.10;;;;;;;6.77;100.00;101503.94;2090591;28;20201;-64
2023/12/07 04:00:28;;;;;;;2.13;1.50;;;;;;;6.77;100.00;101495.66;2097333;28;20175;-64
2023/12/07 04:01:29;;;;;;;2.57;1.43;;;;;;;6.63;100.00;101478.28;2097672;28;20677;-65
2023/12/07 04:02:32;;;;;;;3.50;1.30;;;;;;;6.70;100.00;101490.13;2096611;28;20280;-65
2023/12/07 04:03:33;;;;;;;1.65;1.20;;;;;;;6.76;100.00;101499.59;2090467;28;20275;-64
2023/12/07 04:04:35;;;;;;;2.70;1.65;;;;;;;6.77;100.00;101505.91;2089141;28;20190;-65
2023/12/07 04:05:35;;;;;;;2.00;1.50;;;;;;;6.74;100.00;101490.16;2089077;28;20195;-65
2023/12/07 04:06:36;;;;;;;2.10;1.60;;;;;;;6.81;100.00;101506.72;2090590;28;20176;-65
2023/12/07 04:07:36;;;;;;;1.47;1.27;;;;;;;6.76;100.00;101496.06;2088315;28;20204;-65
2023/12/07 04:08:37;;;;;;;5.60;1.73;;;;;;;6.81;100.00;101506.72;2088237;28;20207;-64
2023/12/07 04:09:37;;;;;;;2.63;1.43;;;;;;;6.84;100.00;101515.00;2096615;28;20692;-64
2023/12/07 04:10:38;;;;;;;2.13;1.37;;;;;;;6.42;100.00;101440.38;2090501;28;20673;-65
2023/12/07 04:11:38;;;;;;;2.43;1.67;;;;;;;6.85;100.00;101508.31;2094654;28;20179;-65
2023/12/07 04:12:39;;;;;;;2.53;1.73;;;;;;;6.86;100.00;101509.09;2097268;28;20263;-65
2023/12/07 04:13:41;;;;;;;3.90;1.60;;;;;;;6.87;100.00;101511.47;2096276;28;20197;-64
2023/12/07 04:14:41;;;;;;;2.70;1.70;;;;;;;6.79;100.00;101493.34;2096682;28;20620;-64
2023/12/07 04:15:42;;;;;;;2.37;1.30;;;;;;;6.88;100.00;101512.25;2097152;28;20191;-65
2023/12/07 04:16:42;;;;;;;2.30;1.33;;;;;;;6.91;100.00;101517.00;2097301;28;20229;-65
2023/12/07 04:17:43;;;;;;;2.07;1.20;;;;;;;6.84;100.00;101520.53;2096540;28;20586;-65
2023/12/07 04:18:43;;;;;;;1.70;1.30;;;;;;;6.86;100.00;101525.63;2096459;28;20198;-65
2023/12/07 04:19:44;;;;;;;1.83;1.13;;;;;;;6.87;100.00;101524.47;2092044;28;20243;-65
2023/12/07 04:20:44;;;;;;;2.47;1.60;;;;;;;6.83;100.00;101520.91;2088536;28;20690;-64
2023/12/07 04:21:45;;;;;;;1.90;1.30;;;;;;;6.86;100.00;101522.88;2091134;28;20179;-64
2023/12/07 04:22:45;;;;;;;3.40;1.60;;;;;;;6.86;100.00;101523.66;2095740;28;20182;-65
2023/12/07 04:23:46;;;;;;;2.13;1.40;;;;;;;6.90;100.00;101526.44;2088753;28;20181;-65
2023/12/07 04:24:46;;;;;;;4.50;1.50;;;;;;;6.88;100.00;101526.81;2089096;28;20322;-65
2023/12/07 04:25:47;;;;;;;2.00;1.40;;;;;;;6.91;100.00;101531.56;2095526;28;20701;-64
2023/12/07 04:26:49;;;;;;;2.93;1.27;;;;;;;6.86;100.00;101533.88;2097225;28;20240;-65
2023/12/07 04:27:49;;;;;;;2.10;1.35;;;;;;;5.99;100.00;101396.47;2094259;28;20240;-64
2023/12/07 04:28:50;;;;;;;2.20;1.40;;;;;;;6.80;100.00;101527.16;2093398;28;20219;-64
2023/12/07 04:29:50;;;;;;;2.00;1.50;;;;;;;6.89;100.00;101530.38;2098235;28;20549;-65
2023/12/07 04:30:51;;;;;;;2.47;1.40;;;;;;;6.88;100.00;101540.59;2098806;28;20547;-64
2023/12/07 04:31:51;;;;;;;2.10;1.40;;;;;;;6.58;100.00;101495.16;2090910;28;20649;-64
2023/12/07 04:32:52;;;;;;;1.80;1.20;;;;;;;6.89;100.00;101542.19;2097762;28;20198;-65
2023/12/07 04:33:53;;;;;;;2.40;1.50;;;;;;;6.89;100.00;101542.19;2098456;28;20187;-65
2023/12/07 04:34:53;;;;;;;2.37;1.30;;;;;;;6.90;100.00;101538.25;2094071;28;20222;-64
2023/12/07 04:35:54;;;;;;;5.37;1.60;;;;;;;6.91;100.00;101542.59;2093382;28;20187;-64
2023/12/07 04:36:54;;;;;;;2.40;1.47;;;;;;;6.88;100.00;101540.59;2098131;28;20203;-64
2023/12/07 04:37:55;;;;;;;1.80;1.37;;;;;;;6.88;100.00;101542.56;2097551;28;20240;-64
2023/12/07 04:38:55;;;;;;;1.70;1.30;;;;;;;6.08;100.00;101432.69;2090107;28;20184;-64
2023/12/07 04:39:56;;;;;;;2.07;1.40;;;;;;;6.48;100.00;101482.13;2097566;28;20215;-65
2023/12/07 04:40:56;;;;;;;2.13;1.33;;;;;;;6.22;100.00;101444.59;2098505;28;20188;-65
2023/12/07 04:41:57;;;;;;;2.00;1.30;;;;;;;6.85;100.00;101537.81;2093324;28;20196;-65
2023/12/07 04:42:57;;;;;;;3.60;1.43;;;;;;;6.87;100.00;101541.00;2089792;28;20577;-64
2023/12/07 04:43:58;;;;;;;1.63;1.10;;;;;;;6.89;100.00;101544.16;2091860;28;20175;-65